sensor_id;sensor_type;location;lat;lon;timestamp;P1;durP1;ratioP1;P2;durP2;ratioP2
7571;SDS011;3827;49.928;8.548;2023-08-30T00:02:00;2.80;;;2.60;;
7571;SDS011;3827;49.928;8.548;2023-08-30T00:04:26;2.65;;;2.47;;
7571;SDS011;3827;49.928;8.548;2023-08-30T00:06:53;2.70;;;2.50;;
7571;SDS011;3827;49.928;8.548;2023-08-30T00:09:20;2.75;;;2.55;;
7571;SDS011;3827;49.928;8.548;2023-08-30T00:11:47;2.80;;;2.60;;
7571;SDS011;3827;49.928;8.548;2023-08-30T00:14:15;2.58;;;2.38;;
7571;SDS011;3827;49.928;8.548;2023-08-30T00:16:42;2.80;;;2.60;;
7571;SDS011;3827;49.928;8.548;2023-08-30T00:19:09;3.08;;;2.88;;
7571;SDS011;3827;49.928;8.548;2023-08-30T00:21:35;3.60;;;2.70;;
7571;SDS011;3827;49.928;8.548;2023-08-30T00:24:02;3.00;;;2.80;;
7571;SDS011;3827;49.928;8.548;2023-08-30T00:26:30;2.87;;;2.67;;
7571;SDS011;3827;49.928;8.548;2023-08-30T00:28:57;2.70;;;2.50;;
7571;SDS011;3827;49.928;8.548;2023-08-30T00:31:25;3.30;;;3.10;;
7571;SDS011;3827;49.928;8.548;2023-08-30T00:33:52;3.50;;;3.30;;
7571;SDS011;3827;49.928;8.548;2023-08-30T00:36:19;3.40;;;3.20;;
7571;SDS011;3827;49.928;8.548;2023-08-30T00:38:45;3.75;;;3.45;;
7571;SDS011;3827;49.928;8.548;2023-08-30T00:41:12;3.20;;;3.00;;
7571;SDS011;3827;49.928;8.548;2023-08-30T00:43:39;3.70;;;3.40;;
7571;SDS011;3827;49.928;8.548;2023-08-30T00:46:06;3.20;;;3.00;;
7571;SDS011;3827;49.928;8.548;2023-08-30T00:48:34;3.13;;;2.92;;
7571;SDS011;3827;49.928;8.548;2023-08-30T00:51:01;2.75;;;2.60;;
7571;SDS011;3827;49.928;8.548;2023-08-30T00:53:27;3.25;;;3.05;;
7571;SDS011;3827;49.928;8.548;2023-08-30T00:55:54;3.30;;;3.10;;
7571;SDS011;3827;49.928;8.548;2023-08-30T00:58:21;2.70;;;2.60;;
7571;SDS011;3827;49.928;8.548;2023-08-30T01:00:48;3.70;;;3.50;;
7571;SDS011;3827;49.928;8.548;2023-08-30T01:03:15;3.60;;;3.40;;
7571;SDS011;3827;49.928;8.548;2023-08-30T01:05:44;3.28;;;3.08;;
7571;SDS011;3827;49.928;8.548;2023-08-30T01:08:10;3.40;;;3.20;;
7571;SDS011;3827;49.928;8.548;2023-08-30T01:10:41;3.00;;;2.80;;
7571;SDS011;3827;49.928;8.548;2023-08-30T01:13:18;3.77;;;3.47;;
7571;SDS011;3827;49.928;8.548;2023-08-30T01:15:47;3.50;;;3.30;;
7571;SDS011;3827;49.928;8.548;2023-08-30T01:18:16;3.97;;;3.67;;
7571;SDS011;3827;49.928;8.548;2023-08-30T01:20:46;3.38;;;3.17;;
7571;SDS011;3827;49.928;8.548;2023-08-30T01:23:17;3.50;;;3.30;;
7571;SDS011;3827;49.928;8.548;2023-08-30T01:25:53;3.85;;;3.60;;
7571;SDS011;3827;49.928;8.548;2023-08-30T01:28:29;3.13;;;2.92;;
7571;SDS011;3827;49.928;8.548;2023-08-30T01:30:59;3.40;;;3.20;;
7571;SDS011;3827;49.928;8.548;2023-08-30T01:33:26;3.53;;;3.33;;
7571;SDS011;3827;49.928;8.548;2023-08-30T01:35:54;3.58;;;3.38;;
7571;SDS011;3827;49.928;8.548;2023-08-30T01:38:24;3.35;;;3.15;;
7571;SDS011;3827;49.928;8.548;2023-08-30T01:40:52;3.30;;;3.10;;
7571;SDS011;3827;49.928;8.548;2023-08-30T01:43:20;3.55;;;3.33;;
7571;SDS011;3827;49.928;8.548;2023-08-30T01:45:50;3.60;;;3.40;;
7571;SDS011;3827;49.928;8.548;2023-08-30T01:48:17;3.00;;;2.80;;
7571;SDS011;3827;49.928;8.548;2023-08-30T01:50:45;3.90;;;3.60;;
7571;SDS011;3827;49.928;8.548;2023-08-30T01:53:13;4.18;;;3.88;;
7571;SDS011;3827;49.928;8.548;2023-08-30T01:55:40;3.65;;;3.38;;
7571;SDS011;3827;49.928;8.548;2023-08-30T01:58:08;3.10;;;2.90;;
7571;SDS011;3827;49.928;8.548;2023-08-30T02:00:35;3.35;;;3.15;;
7571;SDS011;3827;49.928;8.548;2023-08-30T02:03:08;3.85;;;3.55;;
7571;SDS011;3827;49.928;8.548;2023-08-30T02:05:36;4.18;;;3.88;;
7571;SDS011;3827;49.928;8.548;2023-08-30T02:08:09;3.95;;;3.65;;
7571;SDS011;3827;49.928;8.548;2023-08-30T02:10:41;4.35;;;4.05;;
7571;SDS011;3827;49.928;8.548;2023-08-30T02:13:14;4.70;;;4.30;;
7571;SDS011;3827;49.928;8.548;2023-08-30T02:15:43;4.45;;;4.15;;
7571;SDS011;3827;49.928;8.548;2023-08-30T02:18:13;4.55;;;4.25;;
7571;SDS011;3827;49.928;8.548;2023-08-30T02:20:40;3.65;;;3.45;;
7571;SDS011;3827;49.928;8.548;2023-08-30T02:23:08;3.92;;;3.67;;
7571;SDS011;3827;49.928;8.548;2023-08-30T02:25:35;4.93;;;4.57;;
7571;SDS011;3827;49.928;8.548;2023-08-30T02:28:02;3.65;;;3.45;;
7571;SDS011;3827;49.928;8.548;2023-08-30T02:30:29;4.53;;;4.22;;
7571;SDS011;3827;49.928;8.548;2023-08-30T02:32:56;4.80;;;4.40;;
7571;SDS011;3827;49.928;8.548;2023-08-30T02:35:24;4.53;;;4.22;;
7571;SDS011;3827;49.928;8.548;2023-08-30T02:37:51;4.65;;;4.30;;
7571;SDS011;3827;49.928;8.548;2023-08-30T02:40:18;4.70;;;4.40;;
7571;SDS011;3827;49.928;8.548;2023-08-30T02:42:44;4.70;;;4.40;;
7571;SDS011;3827;49.928;8.548;2023-08-30T02:45:11;5.13;;;4.72;;
7571;SDS011;3827;49.928;8.548;2023-08-30T02:47:38;4.55;;;4.15;;
7571;SDS011;3827;49.928;8.548;2023-08-30T02:50:05;5.45;;;4.95;;
7571;SDS011;3827;49.928;8.548;2023-08-30T02:52:33;4.93;;;4.53;;
7571;SDS011;3827;49.928;8.548;2023-08-30T02:55:00;5.10;;;4.70;;
7571;SDS011;3827;49.928;8.548;2023-08-30T02:57:27;5.28;;;4.88;;
7571;SDS011;3827;49.928;8.548;2023-08-30T02:59:53;5.20;;;4.80;;
7571;SDS011;3827;49.928;8.548;2023-08-30T03:02:20;5.32;;;4.93;;
7571;SDS011;3827;49.928;8.548;2023-08-30T03:04:47;5.05;;;4.65;;
7571;SDS011;3827;49.928;8.548;2023-08-30T03:07:13;5.03;;;4.63;;
7571;SDS011;3827;49.928;8.548;2023-08-30T03:09:41;5.07;;;4.68;;
7571;SDS011;3827;49.928;8.548;2023-08-30T03:12:08;4.50;;;4.20;;
7571;SDS011;3827;49.928;8.548;2023-08-30T03:14:35;4.32;;;4.03;;
7571;SDS011;3827;49.928;8.548;2023-08-30T03:17:02;4.57;;;4.28;;
7571;SDS011;3827;49.928;8.548;2023-08-30T03:19:28;5.32;;;4.82;;
7571;SDS011;3827;49.928;8.548;2023-08-30T03:21:55;5.30;;;4.90;;
7571;SDS011;3827;49.928;8.548;2023-08-30T03:24:22;4.05;;;3.75;;
7571;SDS011;3827;49.928;8.548;2023-08-30T03:26:50;4.00;;;3.70;;
7571;SDS011;3827;49.928;8.548;2023-08-30T03:29:17;4.45;;;4.15;;
7571;SDS011;3827;49.928;8.548;2023-08-30T03:31:43;3.65;;;3.35;;
7571;SDS011;3827;49.928;8.548;2023-08-30T03:34:10;4.05;;;3.78;;
7571;SDS011;3827;49.928;8.548;2023-08-30T03:36:37;4.13;;;3.83;;
7571;SDS011;3827;49.928;8.548;2023-08-30T03:39:04;4.97;;;4.60;;
7571;SDS011;3827;49.928;8.548;2023-08-30T03:41:31;5.33;;;4.93;;
7571;SDS011;3827;49.928;8.548;2023-08-30T03:43:59;4.83;;;4.43;;
7571;SDS011;3827;49.928;8.548;2023-08-30T03:46:26;5.32;;;4.90;;
7571;SDS011;3827;49.928;8.548;2023-08-30T03:48:53;5.38;;;4.97;;
7571;SDS011;3827;49.928;8.548;2023-08-30T03:51:19;5.28;;;4.88;;
7571;SDS011;3827;49.928;8.548;2023-08-30T03:53:46;5.57;;;5.18;;
7571;SDS011;3827;49.928;8.548;2023-08-30T03:56:13;5.32;;;4.93;;
7571;SDS011;3827;49.928;8.548;2023-08-30T03:58:39;5.22;;;4.82;;
7571;SDS011;3827;49.928;8.548;2023-08-30T04:01:08;5.13;;;4.72;;
7571;SDS011;3827;49.928;8.548;2023-08-30T04:03:34;5.10;;;4.70;;
7571;SDS011;3827;49.928;8.548;2023-08-30T04:06:01;5.13;;;4.72;;
7571;SDS011;3827;49.928;8.548;2023-08-30T04:08:28;5.40;;;4.90;;
7571;SDS011;3827;49.928;8.548;2023-08-30T04:10:54;5.20;;;4.80;;
7571;SDS011;3827;49.928;8.548;2023-08-30T04:13:21;5.13;;;4.73;;
7571;SDS011;3827;49.928;8.548;2023-08-30T04:15:48;5.63;;;5.22;;
7571;SDS011;3827;49.928;8.548;2023-08-30T04:18:16;5.03;;;4.63;;
7571;SDS011;3827;49.928;8.548;2023-08-30T04:20:43;5.65;;;5.25;;
7571;SDS011;3827;49.928;8.548;2023-08-30T04:23:10;5.63;;;5.22;;
7571;SDS011;3827;49.928;8.548;2023-08-30T04:25:37;5.53;;;5.13;;
7571;SDS011;3827;49.928;8.548;2023-08-30T04:28:04;6.38;;;5.88;;
7571;SDS011;3827;49.928;8.548;2023-08-30T04:30:31;5.30;;;4.90;;
7571;SDS011;3827;49.928;8.548;2023-08-30T04:32:58;6.00;;;5.50;;
7571;SDS011;3827;49.928;8.548;2023-08-30T04:35:29;5.60;;;5.10;;
7571;SDS011;3827;49.928;8.548;2023-08-30T04:37:57;5.70;;;5.20;;
7571;SDS011;3827;49.928;8.548;2023-08-30T04:40:25;6.18;;;5.65;;
7571;SDS011;3827;49.928;8.548;2023-08-30T04:42:51;5.47;;;5.07;;
7571;SDS011;3827;49.928;8.548;2023-08-30T04:45:18;5.82;;;5.32;;
7571;SDS011;3827;49.928;8.548;2023-08-30T04:47:45;5.57;;;5.13;;
7571;SDS011;3827;49.928;8.548;2023-08-30T04:50:12;6.03;;;5.53;;
7571;SDS011;3827;49.928;8.548;2023-08-30T04:52:41;6.20;;;5.70;;
7571;SDS011;3827;49.928;8.548;2023-08-30T04:55:08;6.05;;;5.55;;
7571;SDS011;3827;49.928;8.548;2023-08-30T04:57:35;6.53;;;6.03;;
7571;SDS011;3827;49.928;8.548;2023-08-30T05:00:02;6.72;;;6.10;;
7571;SDS011;3827;49.928;8.548;2023-08-30T05:02:30;7.00;;;6.43;;
7571;SDS011;3827;49.928;8.548;2023-08-30T05:04:57;7.50;;;6.90;;
7571;SDS011;3827;49.928;8.548;2023-08-30T05:07:24;7.43;;;6.82;;
7571;SDS011;3827;49.928;8.548;2023-08-30T05:09:52;10.13;;;9.07;;
7571;SDS011;3827;49.928;8.548;2023-08-30T05:12:19;10.48;;;8.52;;
7571;SDS011;3827;49.928;8.548;2023-08-30T05:14:45;8.87;;;7.87;;
7571;SDS011;3827;49.928;8.548;2023-08-30T05:17:12;8.40;;;7.60;;
7571;SDS011;3827;49.928;8.548;2023-08-30T05:19:39;7.90;;;7.30;;
7571;SDS011;3827;49.928;8.548;2023-08-30T05:22:05;8.00;;;7.40;;
7571;SDS011;3827;49.928;8.548;2023-08-30T05:24:32;7.70;;;7.00;;
7571;SDS011;3827;49.928;8.548;2023-08-30T05:27:01;6.68;;;6.15;;
7571;SDS011;3827;49.928;8.548;2023-08-30T05:29:28;8.07;;;7.45;;
7571;SDS011;3827;49.928;8.548;2023-08-30T05:31:55;7.55;;;6.95;;
7571;SDS011;3827;49.928;8.548;2023-08-30T05:34:22;8.18;;;7.47;;
7571;SDS011;3827;49.928;8.548;2023-08-30T05:36:50;7.53;;;6.93;;
7571;SDS011;3827;49.928;8.548;2023-08-30T05:39:17;7.82;;;7.13;;
7571;SDS011;3827;49.928;8.548;2023-08-30T05:41:44;7.85;;;7.25;;
7571;SDS011;3827;49.928;8.548;2023-08-30T05:44:12;8.30;;;7.60;;
7571;SDS011;3827;49.928;8.548;2023-08-30T05:46:39;7.97;;;7.28;;
7571;SDS011;3827;49.928;8.548;2023-08-30T05:49:06;7.57;;;6.97;;
7571;SDS011;3827;49.928;8.548;2023-08-30T05:51:33;7.50;;;6.90;;
7571;SDS011;3827;49.928;8.548;2023-08-30T05:53:59;7.17;;;6.57;;
7571;SDS011;3827;49.928;8.548;2023-08-30T05:56:27;8.13;;;7.43;;
7571;SDS011;3827;49.928;8.548;2023-08-30T05:58:54;7.70;;;7.00;;
7571;SDS011;3827;49.928;8.548;2023-08-30T06:01:22;7.60;;;6.95;;
7571;SDS011;3827;49.928;8.548;2023-08-30T06:03:49;7.35;;;6.70;;
7571;SDS011;3827;49.928;8.548;2023-08-30T06:06:16;7.70;;;7.10;;
7571;SDS011;3827;49.928;8.548;2023-08-30T06:08:43;7.20;;;6.63;;
7571;SDS011;3827;49.928;8.548;2023-08-30T06:11:10;7.60;;;7.00;;
7571;SDS011;3827;49.928;8.548;2023-08-30T06:13:37;7.18;;;6.68;;
7571;SDS011;3827;49.928;8.548;2023-08-30T06:16:03;7.78;;;7.18;;
7571;SDS011;3827;49.928;8.548;2023-08-30T06:18:31;8.02;;;7.38;;
7571;SDS011;3827;49.928;8.548;2023-08-30T06:20:58;8.20;;;7.50;;
7571;SDS011;3827;49.928;8.548;2023-08-30T06:23:25;8.57;;;7.87;;
7571;SDS011;3827;49.928;8.548;2023-08-30T06:25:55;9.47;;;8.67;;
7571;SDS011;3827;49.928;8.548;2023-08-30T06:28:21;8.40;;;7.70;;
7571;SDS011;3827;49.928;8.548;2023-08-30T06:30:48;7.78;;;7.18;;
7571;SDS011;3827;49.928;8.548;2023-08-30T06:33:15;8.32;;;7.63;;
7571;SDS011;3827;49.928;8.548;2023-08-30T06:35:43;8.75;;;7.95;;
7571;SDS011;3827;49.928;8.548;2023-08-30T06:38:10;8.20;;;7.50;;
7571;SDS011;3827;49.928;8.548;2023-08-30T06:40:37;8.27;;;7.57;;
7571;SDS011;3827;49.928;8.548;2023-08-30T06:43:09;7.32;;;6.70;;
7571;SDS011;3827;49.928;8.548;2023-08-30T06:45:36;8.27;;;7.57;;
7571;SDS011;3827;49.928;8.548;2023-08-30T06:48:04;8.95;;;8.25;;
7571;SDS011;3827;49.928;8.548;2023-08-30T06:50:31;9.05;;;8.35;;
7571;SDS011;3827;49.928;8.548;2023-08-30T06:52:59;8.45;;;7.80;;
7571;SDS011;3827;49.928;8.548;2023-08-30T06:55:26;7.73;;;7.10;;
7571;SDS011;3827;49.928;8.548;2023-08-30T06:57:53;7.97;;;7.30;;
7571;SDS011;3827;49.928;8.548;2023-08-30T07:00:21;7.68;;;7.07;;
7571;SDS011;3827;49.928;8.548;2023-08-30T07:02:48;7.65;;;7.05;;
7571;SDS011;3827;49.928;8.548;2023-08-30T07:05:14;9.05;;;8.25;;
7571;SDS011;3827;49.928;8.548;2023-08-30T07:07:41;8.55;;;7.85;;
7571;SDS011;3827;49.928;8.548;2023-08-30T07:10:10;7.88;;;7.28;;
7571;SDS011;3827;49.928;8.548;2023-08-30T07:12:36;8.03;;;7.40;;
7571;SDS011;3827;49.928;8.548;2023-08-30T07:15:03;7.33;;;6.73;;
7571;SDS011;3827;49.928;8.548;2023-08-30T07:17:31;7.20;;;6.63;;
7571;SDS011;3827;49.928;8.548;2023-08-30T07:19:57;7.90;;;7.28;;
7571;SDS011;3827;49.928;8.548;2023-08-30T07:22:24;6.30;;;5.80;;
7571;SDS011;3827;49.928;8.548;2023-08-30T07:24:51;8.00;;;7.40;;
7571;SDS011;3827;49.928;8.548;2023-08-30T07:27:19;7.70;;;7.05;;
7571;SDS011;3827;49.928;8.548;2023-08-30T07:29:46;7.30;;;6.80;;
7571;SDS011;3827;49.928;8.548;2023-08-30T07:32:13;7.40;;;6.70;;
7571;SDS011;3827;49.928;8.548;2023-08-30T07:34:40;7.82;;;7.22;;
7571;SDS011;3827;49.928;8.548;2023-08-30T07:37:16;7.40;;;6.80;;
7571;SDS011;3827;49.928;8.548;2023-08-30T07:39:43;7.93;;;7.22;;
7571;SDS011;3827;49.928;8.548;2023-08-30T07:42:09;7.45;;;6.85;;
7571;SDS011;3827;49.928;8.548;2023-08-30T07:44:37;7.93;;;7.27;;
7571;SDS011;3827;49.928;8.548;2023-08-30T07:47:04;7.82;;;7.15;;
7571;SDS011;3827;49.928;8.548;2023-08-30T07:49:31;7.13;;;6.53;;
7571;SDS011;3827;49.928;8.548;2023-08-30T07:51:58;7.10;;;6.50;;
7571;SDS011;3827;49.928;8.548;2023-08-30T07:54:24;6.63;;;6.13;;
7571;SDS011;3827;49.928;8.548;2023-08-30T07:56:51;7.35;;;6.75;;
7571;SDS011;3827;49.928;8.548;2023-08-30T07:59:18;6.97;;;6.40;;
7571;SDS011;3827;49.928;8.548;2023-08-30T08:01:47;7.13;;;6.53;;
7571;SDS011;3827;49.928;8.548;2023-08-30T08:04:13;7.60;;;7.00;;
7571;SDS011;3827;49.928;8.548;2023-08-30T08:06:40;6.43;;;5.93;;
7571;SDS011;3827;49.928;8.548;2023-08-30T08:09:07;6.55;;;5.95;;
7571;SDS011;3827;49.928;8.548;2023-08-30T08:11:34;7.57;;;6.93;;
7571;SDS011;3827;49.928;8.548;2023-08-30T08:14:00;7.80;;;7.17;;
7571;SDS011;3827;49.928;8.548;2023-08-30T08:16:28;8.73;;;8.02;;
7571;SDS011;3827;49.928;8.548;2023-08-30T08:18:56;7.80;;;7.13;;
7571;SDS011;3827;49.928;8.548;2023-08-30T08:21:26;6.65;;;6.15;;
7571;SDS011;3827;49.928;8.548;2023-08-30T08:23:53;7.57;;;6.97;;
7571;SDS011;3827;49.928;8.548;2023-08-30T08:26:19;7.25;;;6.65;;
7571;SDS011;3827;49.928;8.548;2023-08-30T08:28:46;6.47;;;5.88;;
7571;SDS011;3827;49.928;8.548;2023-08-30T08:31:13;7.28;;;6.68;;
7571;SDS011;3827;49.928;8.548;2023-08-30T08:33:40;7.55;;;6.85;;
7571;SDS011;3827;49.928;8.548;2023-08-30T08:36:08;6.90;;;6.40;;
7571;SDS011;3827;49.928;8.548;2023-08-30T08:38:35;5.63;;;5.22;;
7571;SDS011;3827;49.928;8.548;2023-08-30T08:41:04;5.90;;;5.40;;
7571;SDS011;3827;49.928;8.548;2023-08-30T08:43:32;6.25;;;5.75;;
7571;SDS011;3827;49.928;8.548;2023-08-30T08:46:02;5.85;;;5.35;;
7571;SDS011;3827;49.928;8.548;2023-08-30T08:48:31;5.25;;;4.95;;
7571;SDS011;3827;49.928;8.548;2023-08-30T08:51:04;6.93;;;6.32;;
7571;SDS011;3827;49.928;8.548;2023-08-30T08:53:33;7.25;;;6.65;;
7571;SDS011;3827;49.928;8.548;2023-08-30T08:56:00;6.65;;;6.15;;
7571;SDS011;3827;49.928;8.548;2023-08-30T08:58:28;7.50;;;6.90;;
7571;SDS011;3827;49.928;8.548;2023-08-30T09:00:55;6.60;;;6.10;;
7571;SDS011;3827;49.928;8.548;2023-08-30T09:03:22;6.75;;;6.25;;
7571;SDS011;3827;49.928;8.548;2023-08-30T09:05:49;6.65;;;6.15;;
7571;SDS011;3827;49.928;8.548;2023-08-30T09:08:18;6.65;;;6.05;;
7571;SDS011;3827;49.928;8.548;2023-08-30T09:10:47;6.45;;;5.95;;
7571;SDS011;3827;49.928;8.548;2023-08-30T09:13:15;6.13;;;5.63;;
7571;SDS011;3827;49.928;8.548;2023-08-30T09:15:43;5.68;;;5.28;;
7571;SDS011;3827;49.928;8.548;2023-08-30T09:18:14;5.63;;;5.13;;
7571;SDS011;3827;49.928;8.548;2023-08-30T09:20:41;6.07;;;5.57;;
7571;SDS011;3827;49.928;8.548;2023-08-30T09:23:15;5.55;;;5.05;;
7571;SDS011;3827;49.928;8.548;2023-08-30T09:25:43;5.93;;;5.43;;
7571;SDS011;3827;49.928;8.548;2023-08-30T09:28:12;6.20;;;5.60;;
7571;SDS011;3827;49.928;8.548;2023-08-30T09:30:39;6.00;;;5.22;;
7571;SDS011;3827;49.928;8.548;2023-08-30T09:33:06;5.40;;;5.00;;
7571;SDS011;3827;49.928;8.548;2023-08-30T09:35:34;5.50;;;5.10;;
7571;SDS011;3827;49.928;8.548;2023-08-30T09:38:15;5.60;;;5.10;;
7571;SDS011;3827;49.928;8.548;2023-08-30T09:40:44;5.43;;;5.00;;
7571;SDS011;3827;49.928;8.548;2023-08-30T09:43:12;5.28;;;4.88;;
7571;SDS011;3827;49.928;8.548;2023-08-30T09:45:40;5.65;;;5.18;;
7571;SDS011;3827;49.928;8.548;2023-08-30T09:48:07;5.38;;;4.88;;
7571;SDS011;3827;49.928;8.548;2023-08-30T09:50:35;5.18;;;4.68;;
7571;SDS011;3827;49.928;8.548;2023-08-30T09:53:04;5.70;;;5.13;;
7571;SDS011;3827;49.928;8.548;2023-08-30T09:55:34;5.18;;;4.78;;
7571;SDS011;3827;49.928;8.548;2023-08-30T09:58:02;4.70;;;4.30;;
7571;SDS011;3827;49.928;8.548;2023-08-30T10:00:31;4.65;;;4.25;;
7571;SDS011;3827;49.928;8.548;2023-08-30T10:02:59;4.22;;;3.83;;
7571;SDS011;3827;49.928;8.548;2023-08-30T10:05:26;4.13;;;3.83;;
7571;SDS011;3827;49.928;8.548;2023-08-30T10:07:53;4.75;;;4.28;;
7571;SDS011;3827;49.928;8.548;2023-08-30T10:10:21;3.95;;;3.65;;
7571;SDS011;3827;49.928;8.548;2023-08-30T10:12:49;3.53;;;3.27;;
7571;SDS011;3827;49.928;8.548;2023-08-30T10:15:17;4.28;;;3.97;;
7571;SDS011;3827;49.928;8.548;2023-08-30T10:17:48;3.85;;;3.55;;
7571;SDS011;3827;49.928;8.548;2023-08-30T10:20:20;3.22;;;3.03;;
7571;SDS011;3827;49.928;8.548;2023-08-30T10:22:46;3.53;;;3.28;;
7571;SDS011;3827;49.928;8.548;2023-08-30T10:25:17;3.20;;;3.00;;
7571;SDS011;3827;49.928;8.548;2023-08-30T10:27:48;3.05;;;2.85;;
7571;SDS011;3827;49.928;8.548;2023-08-30T10:30:16;2.80;;;2.60;;
7571;SDS011;3827;49.928;8.548;2023-08-30T10:32:44;2.42;;;2.22;;
7571;SDS011;3827;49.928;8.548;2023-08-30T10:35:13;2.00;;;1.90;;
7571;SDS011;3827;49.928;8.548;2023-08-30T10:37:42;1.90;;;1.80;;
7571;SDS011;3827;49.928;8.548;2023-08-30T10:40:19;1.90;;;1.80;;
7571;SDS011;3827;49.928;8.548;2023-08-30T10:42:47;1.75;;;1.50;;
7571;SDS011;3827;49.928;8.548;2023-08-30T10:45:24;1.77;;;1.63;;
7571;SDS011;3827;49.928;8.548;2023-08-30T10:47:54;2.00;;;1.50;;
7571;SDS011;3827;49.928;8.548;2023-08-30T10:50:28;1.67;;;1.57;;
7571;SDS011;3827;49.928;8.548;2023-08-30T10:52:57;4.20;;;2.13;;
7571;SDS011;3827;49.928;8.548;2023-08-30T10:55:24;2.35;;;1.55;;
7571;SDS011;3827;49.928;8.548;2023-08-30T10:58:01;1.67;;;1.58;;
7571;SDS011;3827;49.928;8.548;2023-08-30T11:00:30;2.75;;;2.55;;
7571;SDS011;3827;49.928;8.548;2023-08-30T11:02:57;2.50;;;1.90;;
7571;SDS011;3827;49.928;8.548;2023-08-30T11:05:25;1.92;;;1.58;;
7571;SDS011;3827;49.928;8.548;2023-08-30T11:07:55;1.88;;;1.77;;
7571;SDS011;3827;49.928;8.548;2023-08-30T11:10:22;2.03;;;1.67;;
7571;SDS011;3827;49.928;8.548;2023-08-30T11:12:50;2.05;;;1.90;;
7571;SDS011;3827;49.928;8.548;2023-08-30T11:15:17;1.85;;;1.75;;
7571;SDS011;3827;49.928;8.548;2023-08-30T11:17:45;1.70;;;1.60;;
7571;SDS011;3827;49.928;8.548;2023-08-30T11:20:13;1.70;;;1.60;;
7571;SDS011;3827;49.928;8.548;2023-08-30T11:22:42;1.52;;;1.42;;
7571;SDS011;3827;49.928;8.548;2023-08-30T11:25:11;1.50;;;1.40;;
7571;SDS011;3827;49.928;8.548;2023-08-30T11:27:40;1.95;;;1.55;;
7571;SDS011;3827;49.928;8.548;2023-08-30T11:30:08;1.67;;;1.52;;
7571;SDS011;3827;49.928;8.548;2023-08-30T11:32:37;1.37;;;1.27;;
7571;SDS011;3827;49.928;8.548;2023-08-30T11:35:06;1.50;;;1.40;;
7571;SDS011;3827;49.928;8.548;2023-08-30T11:37:33;1.55;;;1.42;;
7571;SDS011;3827;49.928;8.548;2023-08-30T11:40:00;2.20;;;2.00;;
7571;SDS011;3827;49.928;8.548;2023-08-30T11:42:30;1.80;;;1.70;;
7571;SDS011;3827;49.928;8.548;2023-08-30T11:44:57;2.50;;;2.00;;
7571;SDS011;3827;49.928;8.548;2023-08-30T11:47:25;2.00;;;1.90;;
7571;SDS011;3827;49.928;8.548;2023-08-30T11:49:52;2.42;;;2.22;;
7571;SDS011;3827;49.928;8.548;2023-08-30T11:52:21;2.42;;;2.22;;
7571;SDS011;3827;49.928;8.548;2023-08-30T11:54:49;2.73;;;2.40;;
7571;SDS011;3827;49.928;8.548;2023-08-30T11:57:17;2.40;;;2.20;;
7571;SDS011;3827;49.928;8.548;2023-08-30T11:59:45;2.85;;;2.65;;
7571;SDS011;3827;49.928;8.548;2023-08-30T12:02:12;3.03;;;2.73;;
7571;SDS011;3827;49.928;8.548;2023-08-30T12:04:40;3.20;;;2.90;;
7571;SDS011;3827;49.928;8.548;2023-08-30T12:07:08;3.25;;;3.03;;
7571;SDS011;3827;49.928;8.548;2023-08-30T12:09:35;3.08;;;2.88;;
7571;SDS011;3827;49.928;8.548;2023-08-30T12:12:05;3.03;;;2.83;;
7571;SDS011;3827;49.928;8.548;2023-08-30T12:14:33;3.58;;;3.25;;
7571;SDS011;3827;49.928;8.548;2023-08-30T12:17:01;4.38;;;3.25;;
7571;SDS011;3827;49.928;8.548;2023-08-30T12:19:28;3.50;;;3.20;;
7571;SDS011;3827;49.928;8.548;2023-08-30T12:21:55;2.65;;;2.45;;
7571;SDS011;3827;49.928;8.548;2023-08-30T12:24:22;3.00;;;2.80;;
7571;SDS011;3827;49.928;8.548;2023-08-30T12:26:49;3.30;;;3.00;;
7571;SDS011;3827;49.928;8.548;2023-08-30T12:29:15;2.92;;;2.63;;
7571;SDS011;3827;49.928;8.548;2023-08-30T12:31:42;2.80;;;2.60;;
7571;SDS011;3827;49.928;8.548;2023-08-30T12:34:10;2.70;;;2.50;;
7571;SDS011;3827;49.928;8.548;2023-08-30T12:36:37;2.75;;;2.55;;
7571;SDS011;3827;49.928;8.548;2023-08-30T12:39:04;3.05;;;2.67;;
7571;SDS011;3827;49.928;8.548;2023-08-30T12:41:30;2.63;;;2.43;;
7571;SDS011;3827;49.928;8.548;2023-08-30T12:43:58;2.00;;;1.90;;
7571;SDS011;3827;49.928;8.548;2023-08-30T12:46:24;2.10;;;2.00;;
7571;SDS011;3827;49.928;8.548;2023-08-30T12:48:50;2.40;;;2.20;;
7571;SDS011;3827;49.928;8.548;2023-08-30T12:51:18;2.50;;;2.22;;
7571;SDS011;3827;49.928;8.548;2023-08-30T12:53:45;2.28;;;1.90;;
7571;SDS011;3827;49.928;8.548;2023-08-30T12:56:12;2.85;;;2.05;;
7571;SDS011;3827;49.928;8.548;2023-08-30T12:58:38;2.07;;;1.87;;
7571;SDS011;3827;49.928;8.548;2023-08-30T13:01:05;2.42;;;2.22;;
7571;SDS011;3827;49.928;8.548;2023-08-30T13:03:32;2.17;;;1.98;;
7571;SDS011;3827;49.928;8.548;2023-08-30T13:05:58;1.92;;;1.83;;
7571;SDS011;3827;49.928;8.548;2023-08-30T13:08:28;2.45;;;2.25;;
7571;SDS011;3827;49.928;8.548;2023-08-30T13:10:54;3.20;;;2.90;;
7571;SDS011;3827;49.928;8.548;2023-08-30T13:13:21;2.08;;;1.98;;
7571;SDS011;3827;49.928;8.548;2023-08-30T13:15:48;2.03;;;1.83;;
7571;SDS011;3827;49.928;8.548;2023-08-30T13:18:15;2.03;;;1.90;;
7571;SDS011;3827;49.928;8.548;2023-08-30T13:20:42;2.20;;;2.00;;
7571;SDS011;3827;49.928;8.548;2023-08-30T13:23:10;2.60;;;2.40;;
7571;SDS011;3827;49.928;8.548;2023-08-30T13:25:39;2.40;;;2.20;;
7571;SDS011;3827;49.928;8.548;2023-08-30T13:28:06;2.50;;;2.30;;
7571;SDS011;3827;49.928;8.548;2023-08-30T13:30:33;2.72;;;2.53;;
7571;SDS011;3827;49.928;8.548;2023-08-30T13:33:00;3.63;;;3.10;;
7571;SDS011;3827;49.928;8.548;2023-08-30T13:35:27;2.05;;;1.95;;
7571;SDS011;3827;49.928;8.548;2023-08-30T13:37:53;3.20;;;1.80;;
7571;SDS011;3827;49.928;8.548;2023-08-30T13:40:20;2.00;;;1.80;;
7571;SDS011;3827;49.928;8.548;2023-08-30T13:42:49;2.00;;;1.90;;
7571;SDS011;3827;49.928;8.548;2023-08-30T13:45:15;2.53;;;1.83;;
7571;SDS011;3827;49.928;8.548;2023-08-30T13:47:42;1.90;;;1.80;;
7571;SDS011;3827;49.928;8.548;2023-08-30T13:50:10;2.40;;;2.20;;
7571;SDS011;3827;49.928;8.548;2023-08-30T13:52:37;2.40;;;1.90;;
7571;SDS011;3827;49.928;8.548;2023-08-30T13:55:04;2.10;;;1.92;;
7571;SDS011;3827;49.928;8.548;2023-08-30T13:57:31;2.38;;;1.70;;
7571;SDS011;3827;49.928;8.548;2023-08-30T14:00:00;2.00;;;1.90;;
7571;SDS011;3827;49.928;8.548;2023-08-30T14:02:30;2.20;;;2.10;;
7571;SDS011;3827;49.928;8.548;2023-08-30T14:04:57;2.40;;;2.20;;
7571;SDS011;3827;49.928;8.548;2023-08-30T14:07:24;2.58;;;2.25;;
7571;SDS011;3827;49.928;8.548;2023-08-30T14:09:51;2.90;;;2.60;;
7571;SDS011;3827;49.928;8.548;2023-08-30T14:12:18;3.08;;;2.78;;
7571;SDS011;3827;49.928;8.548;2023-08-30T14:14:45;2.00;;;1.90;;
7571;SDS011;3827;49.928;8.548;2023-08-30T14:17:13;2.63;;;2.20;;
7571;SDS011;3827;49.928;8.548;2023-08-30T14:19:40;2.60;;;2.40;;
7571;SDS011;3827;49.928;8.548;2023-08-30T14:22:06;2.27;;;2.07;;
7571;SDS011;3827;49.928;8.548;2023-08-30T14:24:33;2.22;;;2.03;;
7571;SDS011;3827;49.928;8.548;2023-08-30T14:27:00;2.20;;;2.10;;
7571;SDS011;3827;49.928;8.548;2023-08-30T14:29:27;2.30;;;2.10;;
7571;SDS011;3827;49.928;8.548;2023-08-30T14:31:53;2.22;;;2.10;;
7571;SDS011;3827;49.928;8.548;2023-08-30T14:34:22;2.38;;;2.28;;
7571;SDS011;3827;49.928;8.548;2023-08-30T14:36:48;2.53;;;2.33;;
7571;SDS011;3827;49.928;8.548;2023-08-30T14:39:15;2.80;;;2.50;;
7571;SDS011;3827;49.928;8.548;2023-08-30T14:41:42;2.40;;;2.20;;
7571;SDS011;3827;49.928;8.548;2023-08-30T14:44:09;2.23;;;2.07;;
7571;SDS011;3827;49.928;8.548;2023-08-30T14:46:35;2.50;;;2.30;;
7571;SDS011;3827;49.928;8.548;2023-08-30T14:49:02;2.50;;;2.30;;
7571;SDS011;3827;49.928;8.548;2023-08-30T14:51:30;2.40;;;2.20;;
7571;SDS011;3827;49.928;8.548;2023-08-30T14:53:57;2.38;;;2.17;;
7571;SDS011;3827;49.928;8.548;2023-08-30T14:56:24;2.47;;;2.28;;
7571;SDS011;3827;49.928;8.548;2023-08-30T14:58:50;2.42;;;2.22;;
7571;SDS011;3827;49.928;8.548;2023-08-30T15:01:17;2.60;;;2.40;;
7571;SDS011;3827;49.928;8.548;2023-08-30T15:03:44;2.63;;;2.43;;
7571;SDS011;3827;49.928;8.548;2023-08-30T15:06:11;2.25;;;2.10;;
7571;SDS011;3827;49.928;8.548;2023-08-30T15:08:39;2.40;;;2.20;;
7571;SDS011;3827;49.928;8.548;2023-08-30T15:11:07;2.97;;;2.20;;
7571;SDS011;3827;49.928;8.548;2023-08-30T15:13:34;2.35;;;2.15;;
7571;SDS011;3827;49.928;8.548;2023-08-30T15:16:02;2.40;;;2.20;;
7571;SDS011;3827;49.928;8.548;2023-08-30T15:18:29;1.80;;;1.70;;